Weather History for KMRJ - September, 2014

Change the Weather History Date:

Friday, September 19, 2014

  Actual Average (KLNR) Record (KLNR)
Temperature  
Mean Temperature 62 °F -  
Max Temperature 73 °F 69 °F 88 °F (2013)
Min Temperature 51 °F 47 °F 30 °F (2012)
Degree Days  
Heating Degree Days 3    
Growing Degree Days 12 (Base 50)    
Moisture  
Dew Point 51 °F    
Average Humidity 70    
Maximum Humidity 94    
Minimum Humidity 41    
Precipitation  
Precipitation 0.00 in - - ()
Sea Level Pressure  
Sea Level Pressure 30.01 in    
Wind  
Wind Speed 10 mph (SSE)    
Max Wind Speed 21 mph    
Max Gust Speed 31 mph    
Visibility 7 miles    
Events Fog    
Averages and records for this station are not official NWS values.
T = Trace of Precipitation, MM = Missing Value Source: NWS Daily Summary

Daily Weather History Graph

Daily Weather History Graph

Search for Another Location

Airport or City:

Trip Planner

Search our weather history database for the weather conditions in past years. The results will help you decide how hot, cold, wet, or windy it might be!

Date:

Astronomy

Sep. 19, 2014 Rise Set
Actual Time 6:44 AM CDT 7:03 PM CDT
Civil Twilight 6:16 AM CDT 7:31 PM CDT
Nautical Twilight 5:43 AM CDT 8:05 PM CDT
Astronomical Twilight 5:09 AM CDT 8:39 PM CDT
Moon 2:25 AM CDT (9/19) 4:36 PM CDT (9/19)
Length of Visible Light 13h 15m
Length of Day
12h 18m
Waning Crescent, 18% of the Moon is Illuminated
Sep 19
Waning Crescent
Sep 24
New
Oct 1
First Quarter
Oct 8
Full
Oct 15
Last Quarter

Hourly Weather History & Observations

Time (CDT) Temp. Dew Point Humidity Pressure Visibility Wind Dir Wind Speed Gust Speed Precip Events Conditions
12:15 AM 53.6 °F 51.8 °F 94% 30.14 in 5.0 mi ESE 6.9 mph - N/A   Clear
12:35 AM 53.6 °F 51.8 °F 94% 30.13 in 5.0 mi ESE 8.1 mph - N/A   Clear
12:50 AM 53.6 °F 51.8 °F 94% 30.12 in 5.0 mi ESE 9.2 mph - N/A   Clear
1:15 AM 53.6 °F 51.8 °F 94% 30.12 in 4.0 mi SE 5.8 mph - N/A   Clear
1:55 AM 53.6 °F 50.0 °F 88% 30.13 in 4.0 mi SE 5.8 mph - N/A   Clear
2:15 AM 53.6 °F 50.0 °F 88% 30.12 in 4.0 mi SE 8.1 mph - N/A   Clear
2:35 AM 51.8 °F 50.0 °F 94% 30.13 in 4.0 mi SE 6.9 mph - N/A   Clear
2:55 AM 51.8 °F 50.0 °F 94% 30.12 in 4.0 mi SE 6.9 mph - N/A   Clear
3:15 AM 51.8 °F 50.0 °F 94% 30.12 in 3.0 mi SE 6.9 mph - N/A   Clear
3:35 AM 51.8 °F 48.2 °F 88% 30.12 in 2.5 mi SE 6.9 mph - N/A   Scattered Clouds
3:55 AM 51.8 °F 50.0 °F 94% 30.12 in 2.5 mi SE 6.9 mph - N/A   Mostly Cloudy
4:15 AM 51.8 °F 50.0 °F 94% 30.12 in 0.8 mi SE 11.5 mph - N/A   Overcast
4:35 AM 51.8 °F 50.0 °F 94% 30.11 in 0.2 mi SE 9.2 mph - N/A Fog Fog
4:55 AM 51.8 °F 50.0 °F 94% 30.11 in 0.2 mi SE 8.1 mph - N/A Fog Fog
5:15 AM 51.8 °F 50.0 °F 94% 30.10 in 0.5 mi SE 6.9 mph - N/A Fog Fog
5:35 AM 51.8 °F 50.0 °F 94% 30.10 in 1.0 mi SE 8.1 mph - N/A   Overcast
5:55 AM 51.8 °F 50.0 °F 94% 30.11 in 1.5 mi SE 8.1 mph - N/A   Overcast
6:15 AM 51.8 °F 50.0 °F 94% 30.11 in 1.8 mi SE 10.4 mph - N/A   Overcast
6:35 AM 51.8 °F 50.0 °F 94% 30.11 in 1.8 mi SE 9.2 mph - N/A   Overcast
6:55 AM 51.8 °F 50.0 °F 94% 30.11 in 1.0 mi SE 9.2 mph - N/A   Overcast
7:15 AM 51.8 °F 50.0 °F 94% 30.11 in 1.0 mi SE 6.9 mph - N/A   Overcast
7:35 AM 51.8 °F 50.0 °F 94% 30.11 in 1.2 mi SE 6.9 mph - N/A   Mostly Cloudy
7:55 AM 51.8 °F 50.0 °F 94% 30.11 in 1.2 mi SE 8.1 mph - N/A   Mostly Cloudy
8:15 AM 53.6 °F 51.8 °F 94% 30.10 in 1.2 mi SE 9.2 mph - N/A   Overcast
8:35 AM 53.6 °F 51.8 °F 94% 30.10 in 2.0 mi SSE 10.4 mph - N/A   Mostly Cloudy
8:55 AM 55.4 °F 53.6 °F 94% 30.09 in 2.5 mi SE 9.2 mph - N/A   Scattered Clouds
9:15 AM 57.2 °F 53.6 °F 88% 30.10 in 4.0 mi SSE 9.2 mph - N/A   Clear
9:35 AM 59.0 °F 53.6 °F 82% 30.09 in 5.0 mi South 10.4 mph - N/A   Haze
9:55 AM 60.8 °F 53.6 °F 77% 30.09 in 7.0 mi South 12.7 mph 18.4 mph N/A   Clear
10:15 AM 62.6 °F 53.6 °F 72% 30.09 in 10.0 mi South 9.2 mph - N/A   Clear
10:35 AM 64.4 °F 53.6 °F 68% 30.09 in 10.0 mi South 10.4 mph 17.3 mph N/A   Clear
10:55 AM 64.4 °F 53.6 °F 68% 30.07 in 10.0 mi South 11.5 mph 18.4 mph N/A   Clear
11:15 AM 68.0 °F 53.6 °F 60% 30.06 in 10.0 mi South 11.5 mph - N/A   Clear
11:35 AM 68.0 °F 51.8 °F 56% 30.06 in 10.0 mi South 16.1 mph 25.3 mph N/A   Clear
11:55 AM 69.8 °F 51.8 °F 53% 30.06 in 10.0 mi South 16.1 mph 23.0 mph N/A   Clear
12:15 PM 69.8 °F 51.8 °F 53% 30.05 in 10.0 mi South 16.1 mph 25.3 mph N/A   Clear
12:35 PM 71.6 °F 51.8 °F 50% 30.03 in 10.0 mi South 17.3 mph 23.0 mph N/A   Clear
12:55 PM 71.6 °F 51.8 °F 50% 30.03 in 10.0 mi South 16.1 mph 24.2 mph N/A   Clear
1:35 PM 71.6 °F 50.0 °F 46% 30.00 in 10.0 mi South 17.3 mph 25.3 mph N/A   Clear
1:55 PM 73.4 °F 50.0 °F 44% 30.00 in 10.0 mi South 12.7 mph 25.3 mph N/A   Clear
2:30 PM 73.4 °F 50.0 °F 44% 29.98 in 10.0 mi South 18.4 mph 25.3 mph N/A   Clear
2:55 PM 73.4 °F 48.2 °F 41% 29.97 in 10.0 mi South 20.7 mph 25.3 mph N/A   Clear
3:15 PM 73.4 °F 48.2 °F 41% 29.97 in 10.0 mi South 19.6 mph 31.1 mph N/A   Clear
3:35 PM 73.4 °F 50.0 °F 44% 29.95 in 10.0 mi South 16.1 mph 28.8 mph N/A   Clear
3:55 PM 73.4 °F 48.2 °F 41% 29.94 in 10.0 mi South 17.3 mph 25.3 mph N/A   Clear
4:15 PM 73.4 °F 48.2 °F 41% 29.94 in 10.0 mi South 17.3 mph 25.3 mph N/A   Clear
4:35 PM 73.4 °F 48.2 °F 41% 29.93 in 10.0 mi South 19.6 mph 25.3 mph N/A   Clear
4:55 PM 73.4 °F 48.2 °F 41% 29.92 in 10.0 mi South 19.6 mph 27.6 mph N/A   Clear
5:15 PM 73.4 °F 48.2 °F 41% 29.92 in 10.0 mi South 17.3 mph 26.5 mph N/A   Clear
5:35 PM 71.6 °F 50.0 °F 46% 29.91 in 10.0 mi South 15.0 mph 19.6 mph N/A   Clear
5:55 PM 71.6 °F 50.0 °F 46% 29.91 in 10.0 mi South 12.7 mph 24.2 mph N/A   Clear
6:15 PM 69.8 °F 50.0 °F 49% 29.90 in 10.0 mi South 13.8 mph 18.4 mph N/A   Clear
6:35 PM 69.8 °F 50.0 °F 49% 29.89 in 10.0 mi South 15.0 mph 21.9 mph N/A   Clear
6:55 PM 69.8 °F 50.0 °F 49% 29.89 in 10.0 mi South 13.8 mph - N/A   Clear
7:15 PM 68.0 °F 50.0 °F 52% 29.88 in 10.0 mi South 13.8 mph 17.3 mph N/A   Clear
7:35 PM 68.0 °F 50.0 °F 52% 29.88 in 10.0 mi South 12.7 mph - N/A   Clear
7:55 PM 66.2 °F 50.0 °F 56% 29.87 in 10.0 mi South 12.7 mph - N/A   Clear
8:15 PM 66.2 °F 50.0 °F 56% 29.87 in 10.0 mi South 12.7 mph 19.6 mph N/A   Clear
8:35 PM 66.2 °F 51.8 °F 60% 29.87 in 10.0 mi South 13.8 mph 19.6 mph N/A   Clear
8:55 PM 66.2 °F 51.8 °F 60% 29.87 in 10.0 mi South 11.5 mph 18.4 mph N/A   Clear
9:15 PM 66.2 °F 51.8 °F 60% 29.88 in 10.0 mi South 12.7 mph - N/A   Clear
9:35 PM 66.2 °F 51.8 °F 60% 29.89 in 10.0 mi SSW 11.5 mph 18.4 mph N/A   Clear
9:55 PM 66.2 °F 51.8 °F 60% 29.88 in 10.0 mi SSW 17.3 mph - N/A   Clear
10:15 PM 66.2 °F 51.8 °F 60% 29.87 in 10.0 mi South 16.1 mph 25.3 mph N/A   Clear
10:35 PM 66.2 °F 51.8 °F 60% 29.88 in 10.0 mi South 13.8 mph - N/A   Clear
10:55 PM 64.4 °F 53.6 °F 68% 29.87 in 10.0 mi South 11.5 mph - N/A   Clear
11:10 PM 64.4 °F 53.6 °F 68% 29.87 in 10.0 mi South 12.7 mph 17.3 mph N/A   Clear
11:35 PM 64.4 °F 53.6 °F 68% 29.87 in 10.0 mi SSW 11.5 mph - N/A   Clear
11:55 PM 64.4 °F 53.6 °F 68% 29.87 in 10.0 mi South 9.2 mph - N/A   Clear